Latest Weather Observations for Aireys Inlet

IDV60801

Issued at 4:22 pm EDT Wednesday 19 December 2018 (issued every 10 minutes, with the page automatically refreshed every 10 minutes)

About weather observations | Map of weather stations | Latest weather observations for VIC | Other Formats
Station Details ID: 090180 Name: AIREYS INLET Lat: -38.46 Lon: 144.09 Height: 105.0 m
Data from the previous 72 hours. | See also: Recent months at Aireys Inlet
Date/Time
EDT
Temp
°C
App
Temp
°C
Dew
Point
°C
Rel
Hum
%
Delta-T
°C
Wind Press
QNH
hPa
Press
MSL
hPa
Rain since
9am
mm
Dir  Spd
km/h
Gust
km/h
Spd
kts
Gust
kts
19/04:00pm 19.3 20.6 17.1 87 1.3 SE 6 9 3 5 - - 0.0
19/03:30pm 19.7 20.5 15.8 78 2.3 SE 6 9 3 5 - - 0.0
19/03:00pm 20.7 21.5 16.3 76 2.7 SSE 7 11 4 6 - - 0.0
19/02:30pm 20.0 20.3 16.0 78 2.4 SE 9 13 5 7 - - 0.0
19/02:00pm 21.6 21.8 15.7 69 3.5 SSE 9 15 5 8 - - 0.0
19/01:30pm 21.4 21.3 16.1 72 3.2 SE 11 17 6 9 - - 0.0
19/01:00pm 20.6 20.9 16.0 75 2.8 SE 9 15 5 8 - - 0.0
19/12:30pm 21.4 21.6 15.7 70 3.4 ESE 9 15 5 8 - - 0.0
19/12:00pm 21.3 21.2 16.0 72 3.2 ESE 11 17 6 9 - - 0.0
19/11:30am 19.5 19.7 15.8 79 2.2 E 9 13 5 7 - - 0.0
19/11:00am 19.4 19.7 16.1 81 2.0 E 9 17 5 9 - - 0.0
19/10:30am 18.5 19.1 15.9 85 1.5 E 7 13 4 7 - - 0.0
19/10:00am 18.4 18.9 15.6 84 1.7 E 7 11 4 6 - - 0.0
19/09:30am 19.7 19.8 15.4 76 2.6 ENE 9 19 5 10 - - 0.0
19/09:00am 19.4 19.6 15.7 79 2.2 ESE 9 17 5 9 - - 0.0
19/08:30am 18.8 19.6 15.9 83 1.7 E 6 9 3 5 - - -
19/08:00am 17.2 18.5 16.1 93 0.7 SSE 4 9 2 5 - - -
19/07:30am 16.6 16.6 15.3 92 0.8 SSW 9 13 5 7 - - -
19/07:00am 16.1 15.6 14.8 92 0.8 SSW 11 17 6 9 - - -
19/06:30am 15.8 15.5 14.5 92 0.7 SSW 9 13 5 7 - - -
19/06:00am 15.7 15.7 14.2 91 0.9 SSW 7 11 4 6 - - -
19/05:30am 15.7 15.0 14.2 91 0.9 SW 11 17 6 9 - - -
19/05:00am 15.6 14.8 14.0 90 0.9 SW 11 20 6 11 - - -
19/04:30am 15.4 14.1 13.6 89 1.0 SW 13 19 7 10 - - -
19/04:00am 15.4 14.5 13.6 89 1.0 SW 11 17 6 9 - - -
19/03:30am 15.3 14.7 13.5 89 1.0 SW 9 13 5 7 - - -
19/03:00am 15.3 15.1 13.5 89 1.0 SW 7 - 4 - - - -
19/02:00am 15.4 16.1 13.4 88 1.1 ESE 2 6 1 3 - - 0.0
19/01:30am 15.5 15.4 13.3 87 1.2 SE 6 13 3 7 - - 0.0
19/01:00am 15.3 15.5 13.2 87 1.2 SSE 4 6 2 3 - - 0.0
19/12:30am 15.1 14.6 12.8 86 1.3 S 7 9 4 5 - - 0.0
19/12:00am 15.6 14.8 12.9 84 1.5 SSE 9 13 5 7 - - 0.0
 
Date/Time
EDT
Temp
°C
App
Temp
°C
Dew
Point
°C
Rel
Hum
%
Delta-T
°C
Wind Press
QNH
hPa
Press
MSL
hPa
Rain since
9am
mm
Dir  Spd
km/h
Gust
km/h
Spd
kts
Gust
kts
18/11:30pm 15.7 15.6 13.2 85 1.4 SSE 6 9 3 5 - - 0.0
18/11:00pm 15.7 15.4 13.2 85 1.4 SSE 7 13 4 7 - - 0.0
18/10:30pm 15.7 15.5 13.5 87 1.2 SSE 7 13 4 7 - - 0.0
18/10:00pm 15.6 15.3 13.4 87 1.2 S 7 11 4 6 - - 0.0
18/09:30pm 15.4 15.2 13.6 89 1.0 S 7 13 4 7 - - 0.0
18/09:00pm 15.1 14.4 13.3 89 1.0 S 9 15 5 8 - - 0.0
18/08:30pm 15.4 14.4 13.4 88 1.1 S 11 17 6 9 - - 0.0
18/08:00pm 15.9 14.5 13.4 85 1.4 SSW 13 17 7 9 - - 0.0
18/07:30pm 17.1 15.6 13.2 78 2.2 SSW 13 17 7 9 - - 0.0
18/07:00pm 17.4 15.9 13.1 76 2.4 SSW 13 19 7 10 - - 0.0
18/06:30pm 18.5 17.3 14.0 75 2.6 SSW 13 22 7 12 - - 0.0
18/06:00pm 17.3 15.3 12.8 75 2.5 SSW 15 22 8 12 - - 0.0
18/05:30pm 18.8 17.9 13.6 72 3.0 SSW 11 20 6 11 - - 0.0
18/05:00pm 18.6 16.7 13.0 70 3.2 SSW 15 20 8 11 - - 0.0
18/04:30pm 19.0 17.7 13.6 71 3.1 S 13 22 7 12 - - 0.0
18/04:00pm 19.3 17.4 13.0 67 3.6 S 15 20 8 11 - - 0.0
18/03:30pm 20.7 19.0 13.6 64 4.1 SSW 15 24 8 13 - - 0.0
18/03:00pm 20.8 18.5 14.2 66 3.9 S 19 26 10 14 - - 0.0
18/02:30pm 20.6 18.7 14.3 67 3.7 S 17 26 9 14 - - 0.0
18/02:00pm 20.5 18.4 13.7 65 3.9 S 17 24 9 13 - - 0.0
18/01:30pm 20.8 18.8 14.0 65 4.0 SSW 17 28 9 15 - - 0.0
18/01:00pm 21.1 19.5 14.0 64 4.1 S 15 22 8 12 - - 0.0
18/12:30pm 20.4 18.2 13.4 64 4.0 S 17 26 9 14 - - 0.0
18/12:00pm 20.0 18.6 13.5 66 3.7 S 13 20 7 11 - - 0.0
18/11:30am 19.6 18.0 12.8 65 3.9 SSW 13 19 7 10 - - 0.0
18/11:00am 19.2 18.3 13.6 70 3.2 SSW 11 20 6 11 - - 0.0
18/10:30am 17.4 16.3 13.1 76 2.4 SW 11 19 6 10 - - 0.0
18/10:00am 18.0 16.1 12.9 72 2.9 SW 15 22 8 12 - - 0.0
18/09:30am 16.7 15.4 13.8 83 1.6 S 13 20 7 11 - - 0.0
18/09:00am 16.3 14.3 13.8 85 1.4 SSW 17 24 9 13 - - 0.0
18/08:30am 15.5 13.8 12.6 83 1.6 SSW 13 26 7 14 - - 0.0
18/08:00am 15.3 14.3 12.4 83 1.6 SW 9 17 5 9 - - 0.0
18/07:30am 14.9 13.2 12.4 85 1.4 SW 13 20 7 11 - - 0.0
18/07:00am 14.3 13.3 12.2 87 1.1 SW 9 15 5 8 - - 0.0
18/06:30am 14.2 12.8 12.1 87 1.1 SW 11 17 6 9 - - 0.0
18/06:00am 14.1 12.3 12.0 87 1.1 SW 13 20 7 11 - - 0.0
18/05:30am 14.1 12.2 11.8 86 1.2 SSW 13 22 7 12 - - 0.0
18/05:00am 14.1 11.9 12.0 87 1.1 S 15 24 8 13 - - 0.0
18/04:30am 14.1 12.3 12.0 87 1.1 SSW 13 19 7 10 - - 0.0
18/04:00am 13.9 11.6 11.9 88 1.1 SSW 15 22 8 12 - - 0.0
18/03:30am 14.0 11.3 11.7 86 1.2 S 17 26 9 14 - - 0.0
18/03:00am 14.3 12.1 12.0 86 1.2 S 15 22 8 12 - - 0.0
18/02:30am 14.3 11.8 12.3 88 1.1 SSW 17 24 9 13 - - 0.0
18/02:00am 14.1 11.7 11.4 84 1.4 SSW 15 24 8 13 - - 0.0
18/01:30am 14.3 11.6 11.6 84 1.5 SSW 17 24 9 13 - - 0.0
18/01:00am 14.2 11.5 11.7 85 1.3 SSW 17 28 9 15 - - 0.0
18/12:30am 14.3 11.8 12.3 88 1.1 S 17 26 9 14 - - 0.0
18/12:00am 14.6 12.2 12.8 89 1.0 S 17 24 9 13 - - 0.0
 
Date/Time
EDT
Temp
°C
App
Temp
°C
Dew
Point
°C
Rel
Hum
%
Delta-T
°C
Wind Press
QNH
hPa
Press
MSL
hPa
Rain since
9am
mm
Dir  Spd
km/h
Gust
km/h
Spd
kts
Gust
kts
17/11:30pm 14.5 12.0 12.4 87 1.1 SSW 17 26 9 14 - - 0.0
17/11:00pm 14.6 12.3 13.0 90 0.9 SSW 17 24 9 13 - - 0.0
17/10:30pm 14.5 12.3 13.4 93 0.6 SSW 17 26 9 14 - - 0.0
17/10:00pm 14.1 12.3 13.3 95 0.4 SSW 15 24 8 13 - - 0.0
17/09:30pm 14.4 11.8 13.8 96 0.3 SSW 20 30 11 16 - - 0.0
17/09:00pm 14.6 11.2 13.8 95 0.4 SSW 24 33 13 18 - - 0.0
17/08:30pm 14.8 11.4 13.7 93 0.6 SSW 24 37 13 20 - - 0.0
17/08:00pm 14.8 11.8 13.7 93 0.6 SSW 22 33 12 18 - - 0.0
17/07:30pm 15.8 12.0 13.6 87 1.2 SSW 26 39 14 21 - - 0.0
17/07:00pm 16.8 13.1 13.9 83 1.7 SSW 26 39 14 21 - - 0.0
17/06:30pm 16.8 13.0 13.7 82 1.8 SSW 26 37 14 20 - - 0.0
17/06:00pm 17.9 14.2 14.0 78 2.2 SSW 26 41 14 22 - - 0.0
17/05:30pm 19.2 16.2 14.9 76 2.5 SSW 24 35 13 19 - - 0.0
17/05:00pm 18.2 15.2 14.9 81 1.9 SSW 24 37 13 20 - - 0.0
17/04:30pm 17.8 15.1 14.5 81 1.9 SSW 22 35 12 19 - - 0.0
17/04:00pm 18.6 15.7 13.9 74 2.7 SSW 22 37 12 20 - - 0.0
17/03:30pm 19.3 17.3 15.4 78 2.3 SSW 20 37 11 20 - - 0.0
17/03:00pm 19.3 16.7 15.0 76 2.5 SSW 22 35 12 19 - - 0.0
17/02:30pm 17.4 14.3 14.5 83 1.7 SSW 24 35 13 19 - - 0.0
17/02:00pm 18.6 16.5 15.3 81 1.9 SSW 20 30 11 16 - - 0.0
17/01:30pm 17.6 15.3 14.7 83 1.7 SSW 20 33 11 18 - - 0.0
17/01:00pm 18.2 15.8 15.3 83 1.7 SSW 22 35 12 19 - - 0.0
17/12:30pm 18.3 16.0 15.7 85 1.5 SSW 22 37 12 20 - - 0.0
17/12:00pm 18.2 15.6 14.9 81 1.9 SW 22 35 12 19 - - 0.0
17/11:30am 19.2 17.0 15.9 81 2.0 SSW 22 33 12 18 - - 0.0
17/11:00am 19.1 17.3 15.6 80 2.1 SW 19 30 10 16 - - 0.0
17/10:30am 18.2 17.6 16.7 91 0.9 SSW 15 24 8 13 - - 0.0
17/10:00am 16.6 15.0 15.0 90 0.9 SW 17 24 9 13 - - 0.0
17/09:30am 17.2 15.6 15.0 87 1.3 SSW 17 24 9 13 - - 0.0
17/09:00am 18.0 19.3 15.1 83 1.7 WNW 2 7 1 4 - - 4.6
17/08:30am 17.1 17.9 15.8 92 0.8 SW 6 9 3 5 - - 4.6
17/08:00am 16.4 17.0 15.4 94 0.6 WSW 6 7 3 4 - - 4.6
17/07:30am 16.2 16.9 14.6 90 0.9 SW 4 7 2 4 - - 4.6
17/07:00am 15.7 14.9 14.1 90 0.9 NW 11 13 6 7 - - 4.6
17/06:30am 15.3 14.4 13.7 90 0.9 W 11 15 6 8 - - 4.6
17/06:00am 15.4 15.1 13.4 88 1.1 WNW 7 11 4 6 - - 4.6
17/05:30am 15.0 13.2 13.2 89 1.0 WNW 15 19 8 10 - - 4.6
17/05:00am 14.6 14.2 13.0 90 0.9 WNW 7 13 4 7 - - 4.6
17/04:30am 14.6 13.1 13.1 91 0.8 WSW 13 20 7 11 - - 4.6
17/04:00am 14.2 13.7 12.8 91 0.8 WSW 7 13 4 7 - - 4.6
17/03:30am 14.2 11.9 12.9 92 0.7 NW 17 20 9 11 - - 4.6
17/03:00am 14.9 12.1 12.6 86 1.3 NW 19 24 10 13 - - 4.6
17/02:30am 14.2 13.3 12.6 90 0.9 N 9 13 5 7 - - 4.6
17/02:00am 14.1 13.8 12.7 91 0.8 N 6 9 3 5 - - 4.6
17/01:30am 14.3 14.0 12.7 90 0.9 NNE 6 7 3 4 - - 4.6
17/01:00am 14.5 14.9 12.5 88 1.1 SW 2 6 1 3 - - 4.6
17/12:30am 15.1 15.4 13.3 89 1.0 SSW 4 6 2 3 - - 4.6
17/12:00am 14.6 14.6 12.5 87 1.2 NW 4 6 2 3 - - 4.6
 
Date/Time
EDT
Temp
°C
App
Temp
°C
Dew
Point
°C
Rel
Hum
%
Delta-T
°C
Wind Press
QNH
hPa
Press
MSL
hPa
Rain since
9am
mm
Dir  Spd
km/h
Gust
km/h
Spd
kts
Gust
kts
16/11:30pm 14.8 14.4 13.0 89 1.0 WNW 7 9 4 5 - - 4.6
16/11:00pm 14.6 13.9 13.1 91 0.8 WSW 9 13 5 7 - - 4.6
16/10:30pm 14.8 14.3 13.7 93 0.6 NNW 9 13 5 7 - - 4.6
16/10:00pm 15.4 14.9 13.9 91 0.8 NNW 9 11 5 6 - - 4.6
16/09:30pm 15.7 14.9 14.1 90 0.9 NNW 11 11 6 6 - - 4.6
16/09:00pm 16.6 16.9 13.5 82 1.8 NNW 4 6 2 3 - - 4.6
16/08:30pm 17.1 17.2 12.8 76 2.4 WSW 4 6 2 3 - - 4.6
16/08:00pm 18.0 18.0 13.7 76 2.5 WSW 6 9 3 5 - - 4.6
16/07:30pm 19.2 19.4 14.7 75 2.6 SW 7 11 4 6 - - 4.6
16/07:00pm 19.0 19.7 17.1 89 1.2 SW 9 13 5 7 - - 4.6
16/06:30pm 16.6 16.6 15.3 92 0.8 SW 9 11 5 6 - - 4.6
16/06:00pm 17.2 15.5 14.8 86 1.4 SW 17 24 9 13 - - 4.2
16/05:30pm 18.7 17.1 15.9 84 1.7 SW 19 30 10 16 - - 4.2
16/05:00pm 17.5 15.1 15.5 88 1.2 SSW 22 33 12 18 - - 4.2
16/04:30pm 17.4 15.2 15.9 91 0.9 SW 22 33 12 18 - - 4.2

Other Formats:

Comma delimited format used in spreadsheet applications
http://www.bom.gov.au/fwo/IDV60801/IDV60801.94846.axf

JavaScript Object Notation format (JSON) in row-major order
http://www.bom.gov.au/fwo/IDV60801/IDV60801.94846.json